sensor_id;sensor_type;location;lat;lon;timestamp;pressure;altitude;pressure_sealevel;temperature;humidity
21879;BME280;27908;42.708;23.278;2023-12-20T00:00:16;49690.50;;;-136.69;93.58
21879;BME280;27908;42.708;23.278;2023-12-20T00:02:42;49714.13;;;-136.69;93.53
21879;BME280;27908;42.708;23.278;2023-12-20T00:05:14;49722.00;;;-136.69;93.50
21879;BME280;27908;42.708;23.278;2023-12-20T00:07:40;49704.28;;;-136.69;93.60
21879;BME280;27908;42.708;23.278;2023-12-20T00:10:06;49676.72;;;-136.69;93.66
21879;BME280;27908;42.708;23.278;2023-12-20T00:12:32;49696.41;;;-136.69;94.21
21879;BME280;27908;42.708;23.278;2023-12-20T00:14:58;49698.38;;;-136.69;93.94
21879;BME280;27908;42.708;23.278;2023-12-20T00:17:23;49720.03;;;-136.69;94.09
21879;BME280;27908;42.708;23.278;2023-12-20T00:19:48;49694.44;;;-136.69;94.63
21879;BME280;27908;42.708;23.278;2023-12-20T00:22:14;49690.50;;;-136.69;94.37
21879;BME280;27908;42.708;23.278;2023-12-20T00:24:39;49672.78;;;-136.69;94.41
21879;BME280;27908;42.708;23.278;2023-12-20T00:27:05;49712.16;;;-136.69;94.40
21879;BME280;27908;42.708;23.278;2023-12-20T00:29:30;49682.63;;;-136.69;94.49
21879;BME280;27908;42.708;23.278;2023-12-20T00:31:56;49722.00;;;-136.69;94.19
21879;BME280;27908;42.708;23.278;2023-12-20T00:34:21;49672.78;;;-136.69;94.23
21879;BME280;27908;42.708;23.278;2023-12-20T00:36:47;49688.53;;;-136.69;94.83
21879;BME280;27908;42.708;23.278;2023-12-20T00:39:12;49672.78;;;-136.69;94.89
21879;BME280;27908;42.708;23.278;2023-12-20T00:41:38;49733.81;;;-136.69;94.76
21879;BME280;27908;42.708;23.278;2023-12-20T00:44:04;49698.38;;;-136.69;94.65
21879;BME280;27908;42.708;23.278;2023-12-20T00:46:29;49694.44;;;-136.69;94.49
21879;BME280;27908;42.708;23.278;2023-12-20T00:48:55;49704.28;;;-136.69;94.37
21879;BME280;27908;42.708;23.278;2023-12-20T00:51:20;49704.28;;;-136.69;94.58
21879;BME280;27908;42.708;23.278;2023-12-20T00:53:47;49698.38;;;-136.69;94.49
21879;BME280;27908;42.708;23.278;2023-12-20T00:56:14;49723.97;;;-136.69;94.26
21879;BME280;27908;42.708;23.278;2023-12-20T00:58:40;49716.09;;;-136.69;93.83
21879;BME280;27908;42.708;23.278;2023-12-20T01:01:05;49678.69;;;-136.69;93.68
21879;BME280;27908;42.708;23.278;2023-12-20T01:03:31;49706.25;;;-136.69;93.73
21879;BME280;27908;42.708;23.278;2023-12-20T01:05:56;49698.38;;;-136.69;93.68
21879;BME280;27908;42.708;23.278;2023-12-20T01:08:22;49704.28;;;-136.69;93.18
21879;BME280;27908;42.708;23.278;2023-12-20T01:10:48;49714.13;;;-136.69;93.24
21879;BME280;27908;42.708;23.278;2023-12-20T01:13:13;49698.38;;;-136.69;92.80
21879;BME280;27908;42.708;23.278;2023-12-20T01:15:39;49682.63;;;-136.69;92.98
21879;BME280;27908;42.708;23.278;2023-12-20T01:18:04;49659.00;;;-136.69;93.01
21879;BME280;27908;42.708;23.278;2023-12-20T01:20:30;49690.50;;;-136.69;92.94
21879;BME280;27908;42.708;23.278;2023-12-20T01:22:55;49753.50;;;-136.69;92.64
21879;BME280;27908;42.708;23.278;2023-12-20T01:25:21;49696.41;;;-136.69;92.97
21879;BME280;27908;42.708;23.278;2023-12-20T01:27:46;49700.34;;;-136.69;93.13
21879;BME280;27908;42.708;23.278;2023-12-20T01:30:12;49710.19;;;-136.69;93.63
21879;BME280;27908;42.708;23.278;2023-12-20T01:32:37;49696.41;;;-136.69;93.41
21879;BME280;27908;42.708;23.278;2023-12-20T01:35:03;49696.41;;;-136.69;93.23
21879;BME280;27908;42.708;23.278;2023-12-20T01:37:29;49694.44;;;-136.69;93.22
21879;BME280;27908;42.708;23.278;2023-12-20T01:39:54;49712.16;;;-136.69;92.96
21879;BME280;27908;42.708;23.278;2023-12-20T01:42:20;49690.50;;;-136.69;93.10
21879;BME280;27908;42.708;23.278;2023-12-20T01:44:45;49708.22;;;-136.69;92.84
21879;BME280;27908;42.708;23.278;2023-12-20T01:47:12;49710.19;;;-136.69;93.17
21879;BME280;27908;42.708;23.278;2023-12-20T01:49:37;49708.22;;;-136.69;93.10
21879;BME280;27908;42.708;23.278;2023-12-20T01:52:03;49712.16;;;-136.69;93.12
21879;BME280;27908;42.708;23.278;2023-12-20T01:54:29;49670.81;;;-136.69;93.00
21879;BME280;27908;42.708;23.278;2023-12-20T01:56:55;49698.38;;;-136.69;93.27
21879;BME280;27908;42.708;23.278;2023-12-20T01:59:20;49694.44;;;-136.69;93.45
21879;BME280;27908;42.708;23.278;2023-12-20T02:01:47;49680.66;;;-136.69;93.44
21879;BME280;27908;42.708;23.278;2023-12-20T02:04:13;49692.47;;;-136.69;93.68
21879;BME280;27908;42.708;23.278;2023-12-20T02:06:40;49676.72;;;-136.69;93.63
21879;BME280;27908;42.708;23.278;2023-12-20T02:09:05;49720.03;;;-136.69;93.79
21879;BME280;27908;42.708;23.278;2023-12-20T02:11:32;49696.41;;;-136.69;93.77
21879;BME280;27908;42.708;23.278;2023-12-20T02:13:58;49714.13;;;-136.69;93.94
21879;BME280;27908;42.708;23.278;2023-12-20T02:16:24;49716.09;;;-136.69;93.66
21879;BME280;27908;42.708;23.278;2023-12-20T02:18:49;49698.38;;;-136.69;93.53
21879;BME280;27908;42.708;23.278;2023-12-20T02:21:15;49722.00;;;-136.69;93.38
21879;BME280;27908;42.708;23.278;2023-12-20T02:23:40;49716.09;;;-136.69;93.57
21879;BME280;27908;42.708;23.278;2023-12-20T02:26:06;49668.84;;;-136.69;93.55
21879;BME280;27908;42.708;23.278;2023-12-20T02:28:32;49678.69;;;-136.69;93.39
21879;BME280;27908;42.708;23.278;2023-12-20T02:30:58;49706.25;;;-136.69;93.29
21879;BME280;27908;42.708;23.278;2023-12-20T02:33:23;49678.69;;;-136.69;93.18
21879;BME280;27908;42.708;23.278;2023-12-20T02:35:49;49700.34;;;-136.69;92.95
21879;BME280;27908;42.708;23.278;2023-12-20T02:38:15;49694.44;;;-136.69;93.23
21879;BME280;27908;42.708;23.278;2023-12-20T02:40:40;49686.56;;;-136.69;93.10
21879;BME280;27908;42.708;23.278;2023-12-20T02:43:06;49710.19;;;-136.69;93.15
21879;BME280;27908;42.708;23.278;2023-12-20T02:45:31;49704.28;;;-136.69;93.40
21879;BME280;27908;42.708;23.278;2023-12-20T02:47:57;49670.81;;;-136.69;93.73
21879;BME280;27908;42.708;23.278;2023-12-20T02:50:22;49698.38;;;-136.69;94.21
21879;BME280;27908;42.708;23.278;2023-12-20T02:52:48;49710.19;;;-136.69;94.84
21879;BME280;27908;42.708;23.278;2023-12-20T02:55:14;49696.41;;;-136.69;94.87
21879;BME280;27908;42.708;23.278;2023-12-20T02:57:39;49694.44;;;-136.69;94.84
21879;BME280;27908;42.708;23.278;2023-12-20T03:00:08;49694.44;;;-136.69;95.44
21879;BME280;27908;42.708;23.278;2023-12-20T03:02:34;49708.22;;;-136.69;95.37
21879;BME280;27908;42.708;23.278;2023-12-20T03:05:00;49708.22;;;-136.69;95.42
21879;BME280;27908;42.708;23.278;2023-12-20T03:07:25;49702.31;;;-136.69;95.67
21879;BME280;27908;42.708;23.278;2023-12-20T03:09:51;49686.56;;;-136.69;95.67
21879;BME280;27908;42.708;23.278;2023-12-20T03:12:16;49694.44;;;-136.69;96.37
21879;BME280;27908;42.708;23.278;2023-12-20T03:14:43;49678.69;;;-136.69;96.20
21879;BME280;27908;42.708;23.278;2023-12-20T03:17:09;49672.78;;;-136.69;96.85
21879;BME280;27908;42.708;23.278;2023-12-20T03:19:34;49694.44;;;-136.69;96.94
21879;BME280;27908;42.708;23.278;2023-12-20T03:21:59;49729.88;;;-136.69;97.68
21879;BME280;27908;42.708;23.278;2023-12-20T03:24:26;49704.28;;;-136.69;98.12
21879;BME280;27908;42.708;23.278;2023-12-20T03:26:52;49690.50;;;-136.69;98.18
21879;BME280;27908;42.708;23.278;2023-12-20T03:29:17;49714.13;;;-136.69;98.83
21879;BME280;27908;42.708;23.278;2023-12-20T03:31:42;49664.91;;;-136.69;98.78
21879;BME280;27908;42.708;23.278;2023-12-20T03:34:08;49716.09;;;-136.69;98.40
21879;BME280;27908;42.708;23.278;2023-12-20T03:36:33;49684.59;;;-136.69;98.58
21879;BME280;27908;42.708;23.278;2023-12-20T03:38:59;49706.25;;;-136.69;98.52
21879;BME280;27908;42.708;23.278;2023-12-20T03:41:24;49710.19;;;-136.69;98.55
21879;BME280;27908;42.708;23.278;2023-12-20T03:43:50;49698.38;;;-136.69;98.60
21879;BME280;27908;42.708;23.278;2023-12-20T03:46:15;49700.34;;;-136.69;98.25
21879;BME280;27908;42.708;23.278;2023-12-20T03:48:41;49696.41;;;-136.69;98.09
21879;BME280;27908;42.708;23.278;2023-12-20T03:51:06;49706.25;;;-136.69;98.29
21879;BME280;27908;42.708;23.278;2023-12-20T03:53:32;49702.31;;;-136.69;98.05
21879;BME280;27908;42.708;23.278;2023-12-20T03:55:57;49710.19;;;-136.69;97.90
21879;BME280;27908;42.708;23.278;2023-12-20T03:58:23;49702.31;;;-136.69;97.18
21879;BME280;27908;42.708;23.278;2023-12-20T04:00:48;49672.78;;;-136.69;97.22
21879;BME280;27908;42.708;23.278;2023-12-20T04:03:14;49680.66;;;-136.69;96.68
21879;BME280;27908;42.708;23.278;2023-12-20T04:05:40;49710.19;;;-136.69;96.67
21879;BME280;27908;42.708;23.278;2023-12-20T04:08:07;49702.31;;;-136.69;96.88
21879;BME280;27908;42.708;23.278;2023-12-20T04:10:32;49718.06;;;-136.69;96.82
21879;BME280;27908;42.708;23.278;2023-12-20T04:12:58;49696.41;;;-136.69;96.71
21879;BME280;27908;42.708;23.278;2023-12-20T04:15:23;49672.78;;;-136.69;96.30
21879;BME280;27908;42.708;23.278;2023-12-20T04:17:49;49690.50;;;-136.69;96.01
21879;BME280;27908;42.708;23.278;2023-12-20T04:20:14;49712.16;;;-136.69;95.67
21879;BME280;27908;42.708;23.278;2023-12-20T04:22:39;49700.34;;;-136.69;95.42
21879;BME280;27908;42.708;23.278;2023-12-20T04:25:05;49712.16;;;-136.69;95.75
21879;BME280;27908;42.708;23.278;2023-12-20T04:27:31;49702.31;;;-136.69;95.20
21879;BME280;27908;42.708;23.278;2023-12-20T04:29:56;49692.47;;;-136.69;95.01
21879;BME280;27908;42.708;23.278;2023-12-20T04:32:22;49720.03;;;-136.69;95.26
21879;BME280;27908;42.708;23.278;2023-12-20T04:34:47;49666.88;;;-136.69;96.15
21879;BME280;27908;42.708;23.278;2023-12-20T04:37:13;49700.34;;;-136.69;96.15
21879;BME280;27908;42.708;23.278;2023-12-20T04:39:38;49720.03;;;-136.69;96.33
21879;BME280;27908;42.708;23.278;2023-12-20T04:42:04;49714.13;;;-136.69;96.30
21879;BME280;27908;42.708;23.278;2023-12-20T04:44:29;49755.47;;;-136.69;96.33
21879;BME280;27908;42.708;23.278;2023-12-20T04:46:55;49706.25;;;-136.69;96.69
21879;BME280;27908;42.708;23.278;2023-12-20T04:49:21;49710.19;;;-136.69;97.32
21879;BME280;27908;42.708;23.278;2023-12-20T04:51:47;49690.50;;;-136.69;97.59
21879;BME280;27908;42.708;23.278;2023-12-20T04:54:12;49733.81;;;-136.69;98.09
21879;BME280;27908;42.708;23.278;2023-12-20T04:56:38;49704.28;;;-136.69;98.42
21879;BME280;27908;42.708;23.278;2023-12-20T04:59:05;49682.63;;;-136.69;98.36
21879;BME280;27908;42.708;23.278;2023-12-20T05:01:31;49698.38;;;-136.69;98.87
21879;BME280;27908;42.708;23.278;2023-12-20T05:03:56;49708.22;;;-136.69;98.54
21879;BME280;27908;42.708;23.278;2023-12-20T05:06:22;49700.34;;;-136.69;98.57
21879;BME280;27908;42.708;23.278;2023-12-20T05:08:47;49698.38;;;-136.69;98.81
21879;BME280;27908;42.708;23.278;2023-12-20T05:11:12;49678.69;;;-136.69;99.32
21879;BME280;27908;42.708;23.278;2023-12-20T05:13:39;49712.16;;;-136.69;98.88
21879;BME280;27908;42.708;23.278;2023-12-20T05:16:05;49698.38;;;-136.69;99.05
21879;BME280;27908;42.708;23.278;2023-12-20T05:18:30;49690.50;;;-136.69;98.85
21879;BME280;27908;42.708;23.278;2023-12-20T05:20:56;49741.69;;;-136.69;98.69
21879;BME280;27908;42.708;23.278;2023-12-20T05:23:22;49720.03;;;-136.69;98.03
21879;BME280;27908;42.708;23.278;2023-12-20T05:25:47;49698.38;;;-136.69;98.26
21879;BME280;27908;42.708;23.278;2023-12-20T05:28:13;49686.56;;;-136.69;98.33
21879;BME280;27908;42.708;23.278;2023-12-20T05:30:38;49672.78;;;-136.69;98.58
21879;BME280;27908;42.708;23.278;2023-12-20T05:33:04;49725.94;;;-136.69;98.77
21879;BME280;27908;42.708;23.278;2023-12-20T05:35:29;49710.19;;;-136.69;98.65
21879;BME280;27908;42.708;23.278;2023-12-20T05:37:55;49731.84;;;-136.69;98.97
21879;BME280;27908;42.708;23.278;2023-12-20T05:40:20;49714.13;;;-136.69;99.25
21879;BME280;27908;42.708;23.278;2023-12-20T05:42:46;49706.25;;;-136.69;99.22
21879;BME280;27908;42.708;23.278;2023-12-20T05:45:11;49704.28;;;-136.69;99.20
21879;BME280;27908;42.708;23.278;2023-12-20T05:47:37;49700.34;;;-136.69;99.38
21879;BME280;27908;42.708;23.278;2023-12-20T05:50:02;49702.31;;;-136.69;99.36
21879;BME280;27908;42.708;23.278;2023-12-20T05:52:29;49716.09;;;-136.69;99.13
21879;BME280;27908;42.708;23.278;2023-12-20T05:54:54;49704.28;;;-136.69;99.25
21879;BME280;27908;42.708;23.278;2023-12-20T05:57:21;49706.25;;;-136.69;99.51
21879;BME280;27908;42.708;23.278;2023-12-20T05:59:48;49712.16;;;-136.69;99.49
21879;BME280;27908;42.708;23.278;2023-12-20T06:02:13;49741.69;;;-136.69;99.01
21879;BME280;27908;42.708;23.278;2023-12-20T06:04:42;49684.59;;;-136.69;99.18
21879;BME280;27908;42.708;23.278;2023-12-20T06:07:08;49741.69;;;-136.69;99.15
21879;BME280;27908;42.708;23.278;2023-12-20T06:09:34;49716.09;;;-136.69;99.07
21879;BME280;27908;42.708;23.278;2023-12-20T06:11:59;49696.41;;;-136.69;99.46
21879;BME280;27908;42.708;23.278;2023-12-20T06:14:25;49682.63;;;-136.69;98.78
21879;BME280;27908;42.708;23.278;2023-12-20T06:16:51;49716.09;;;-136.69;98.98
21879;BME280;27908;42.708;23.278;2023-12-20T06:19:16;49725.94;;;-136.69;98.98
21879;BME280;27908;42.708;23.278;2023-12-20T06:21:42;49710.19;;;-136.69;99.06
21879;BME280;27908;42.708;23.278;2023-12-20T06:24:07;49710.19;;;-136.69;99.08
21879;BME280;27908;42.708;23.278;2023-12-20T06:26:32;49694.44;;;-136.69;98.69
21879;BME280;27908;42.708;23.278;2023-12-20T06:28:58;49696.41;;;-136.69;98.09
21879;BME280;27908;42.708;23.278;2023-12-20T06:31:23;49704.28;;;-136.69;98.36
21879;BME280;27908;42.708;23.278;2023-12-20T06:33:49;49698.38;;;-136.69;98.24
21879;BME280;27908;42.708;23.278;2023-12-20T06:36:22;49718.06;;;-136.69;98.43
21879;BME280;27908;42.708;23.278;2023-12-20T06:38:48;49706.25;;;-136.69;98.07
21879;BME280;27908;42.708;23.278;2023-12-20T06:41:13;49688.53;;;-136.69;98.20
21879;BME280;27908;42.708;23.278;2023-12-20T06:43:40;49712.16;;;-136.69;97.38
21879;BME280;27908;42.708;23.278;2023-12-20T06:46:06;49718.06;;;-136.69;97.53
21879;BME280;27908;42.708;23.278;2023-12-20T06:48:31;49712.16;;;-136.69;97.52
21879;BME280;27908;42.708;23.278;2023-12-20T06:50:59;49718.06;;;-136.69;97.43
21879;BME280;27908;42.708;23.278;2023-12-20T06:53:25;49718.06;;;-136.69;97.78
21879;BME280;27908;42.708;23.278;2023-12-20T06:55:50;49714.13;;;-136.69;97.62
21879;BME280;27908;42.708;23.278;2023-12-20T06:58:16;49710.19;;;-136.69;97.68
21879;BME280;27908;42.708;23.278;2023-12-20T07:00:41;49718.06;;;-136.69;97.66
21879;BME280;27908;42.708;23.278;2023-12-20T07:03:08;49696.41;;;-136.69;97.00
21879;BME280;27908;42.708;23.278;2023-12-20T07:05:34;49684.59;;;-136.69;96.69
21879;BME280;27908;42.708;23.278;2023-12-20T07:07:59;49714.13;;;-136.69;96.68
21879;BME280;27908;42.708;23.278;2023-12-20T07:10:25;49718.06;;;-136.69;96.17
21879;BME280;27908;42.708;23.278;2023-12-20T07:12:50;49714.13;;;-136.69;95.99
21879;BME280;27908;42.708;23.278;2023-12-20T07:15:16;49723.97;;;-136.69;95.88
21879;BME280;27908;42.708;23.278;2023-12-20T07:17:42;49716.09;;;-136.69;95.22
21879;BME280;27908;42.708;23.278;2023-12-20T07:20:09;49690.50;;;-136.69;95.07
21879;BME280;27908;42.708;23.278;2023-12-20T07:22:36;49712.16;;;-136.69;95.09
21879;BME280;27908;42.708;23.278;2023-12-20T07:25:02;49708.22;;;-136.69;94.86
21879;BME280;27908;42.708;23.278;2023-12-20T07:27:28;49718.06;;;-136.69;95.22
21879;BME280;27908;42.708;23.278;2023-12-20T07:29:54;49708.22;;;-136.69;95.03
21879;BME280;27908;42.708;23.278;2023-12-20T07:32:19;49733.81;;;-136.69;94.76
21879;BME280;27908;42.708;23.278;2023-12-20T07:34:45;49706.25;;;-136.69;94.60
21879;BME280;27908;42.708;23.278;2023-12-20T07:37:10;49698.38;;;-136.69;93.86
21879;BME280;27908;42.708;23.278;2023-12-20T07:39:39;49694.44;;;-136.69;93.20
21879;BME280;27908;42.708;23.278;2023-12-20T07:42:05;49704.28;;;-136.69;92.78
21879;BME280;27908;42.708;23.278;2023-12-20T07:44:31;49680.66;;;-136.69;92.84
21879;BME280;27908;42.708;23.278;2023-12-20T07:46:56;49700.34;;;-136.69;92.37
21879;BME280;27908;42.708;23.278;2023-12-20T07:49:23;49708.22;;;-136.69;92.73
21879;BME280;27908;42.708;23.278;2023-12-20T07:51:48;49710.19;;;-136.69;92.96
21879;BME280;27908;42.708;23.278;2023-12-20T07:54:15;49674.75;;;-136.69;92.80
21879;BME280;27908;42.708;23.278;2023-12-20T07:56:41;49722.00;;;-136.69;92.30
21879;BME280;27908;42.708;23.278;2023-12-20T07:59:06;49676.72;;;-136.69;92.35
21879;BME280;27908;42.708;23.278;2023-12-20T08:01:32;49664.91;;;-136.69;92.59
21879;BME280;27908;42.708;23.278;2023-12-20T08:03:57;49710.19;;;-136.69;92.08
21879;BME280;27908;42.708;23.278;2023-12-20T08:06:23;49694.44;;;-136.69;91.74
21879;BME280;27908;42.708;23.278;2023-12-20T08:08:48;49690.50;;;-136.69;91.33
21879;BME280;27908;42.708;23.278;2023-12-20T08:11:14;49696.41;;;-136.69;91.42
21879;BME280;27908;42.708;23.278;2023-12-20T08:13:39;49710.19;;;-136.69;91.44
21879;BME280;27908;42.708;23.278;2023-12-20T08:16:05;49666.88;;;-136.69;91.21
21879;BME280;27908;42.708;23.278;2023-12-20T08:18:31;49702.31;;;-136.69;91.28
21879;BME280;27908;42.708;23.278;2023-12-20T08:20:56;49684.59;;;-136.69;91.13
21879;BME280;27908;42.708;23.278;2023-12-20T08:23:22;49690.50;;;-136.69;91.05
21879;BME280;27908;42.708;23.278;2023-12-20T08:25:47;49678.69;;;-136.69;90.16
21879;BME280;27908;42.708;23.278;2023-12-20T08:28:13;49670.81;;;-136.69;90.14
21879;BME280;27908;42.708;23.278;2023-12-20T08:30:39;49694.44;;;-136.69;88.96
21879;BME280;27908;42.708;23.278;2023-12-20T08:33:04;49706.25;;;-136.69;88.48
21879;BME280;27908;42.708;23.278;2023-12-20T08:35:30;49684.59;;;-136.69;88.41
21879;BME280;27908;42.708;23.278;2023-12-20T08:37:56;49678.69;;;-136.69;87.84
21879;BME280;27908;42.708;23.278;2023-12-20T08:40:21;49692.47;;;-136.69;86.62
21879;BME280;27908;42.708;23.278;2023-12-20T08:42:47;49682.63;;;-136.69;86.37
21879;BME280;27908;42.708;23.278;2023-12-20T08:45:12;49682.63;;;-136.69;86.42
21879;BME280;27908;42.708;23.278;2023-12-20T08:47:38;49682.63;;;-136.69;86.88
21879;BME280;27908;42.708;23.278;2023-12-20T08:50:03;49694.44;;;-136.69;86.43
21879;BME280;27908;42.708;23.278;2023-12-20T08:52:29;49684.59;;;-136.69;86.91
21879;BME280;27908;42.708;23.278;2023-12-20T08:54:55;49660.97;;;-136.69;87.44
21879;BME280;27908;42.708;23.278;2023-12-20T08:57:20;49680.66;;;-136.69;87.83
21879;BME280;27908;42.708;23.278;2023-12-20T08:59:47;49686.56;;;-136.69;88.39
21879;BME280;27908;42.708;23.278;2023-12-20T09:02:13;49710.19;;;-136.69;89.07
21879;BME280;27908;42.708;23.278;2023-12-20T09:04:39;49702.31;;;-136.69;88.53
21879;BME280;27908;42.708;23.278;2023-12-20T09:07:05;49698.38;;;-136.69;88.60
21879;BME280;27908;42.708;23.278;2023-12-20T09:09:30;49668.84;;;-136.69;89.48
21879;BME280;27908;42.708;23.278;2023-12-20T09:11:57;49684.59;;;-136.69;90.18
21879;BME280;27908;42.708;23.278;2023-12-20T09:14:23;49704.28;;;-136.69;90.10
21879;BME280;27908;42.708;23.278;2023-12-20T09:16:49;49694.44;;;-136.69;90.02
21879;BME280;27908;42.708;23.278;2023-12-20T09:19:17;49698.38;;;-136.69;89.88
21879;BME280;27908;42.708;23.278;2023-12-20T09:21:43;49722.00;;;-136.69;89.39
21879;BME280;27908;42.708;23.278;2023-12-20T09:24:08;49682.63;;;-136.69;89.22
21879;BME280;27908;42.708;23.278;2023-12-20T09:26:34;49678.69;;;-136.69;87.89
21879;BME280;27908;42.708;23.278;2023-12-20T09:29:00;49692.47;;;-136.69;87.45
21879;BME280;27908;42.708;23.278;2023-12-20T09:31:26;49716.09;;;-136.69;87.16
21879;BME280;27908;42.708;23.278;2023-12-20T09:33:52;49700.34;;;-136.69;87.20
21879;BME280;27908;42.708;23.278;2023-12-20T09:36:17;49720.03;;;-136.69;89.05
21879;BME280;27908;42.708;23.278;2023-12-20T09:38:43;49694.44;;;-136.69;89.32
21879;BME280;27908;42.708;23.278;2023-12-20T09:41:08;49688.53;;;-136.69;89.44
21879;BME280;27908;42.708;23.278;2023-12-20T09:43:37;49694.44;;;-136.69;88.27
21879;BME280;27908;42.708;23.278;2023-12-20T09:46:05;49690.50;;;-136.69;87.29
21879;BME280;27908;42.708;23.278;2023-12-20T09:48:32;49676.72;;;-136.69;86.67
21879;BME280;27908;42.708;23.278;2023-12-20T09:50:58;49684.59;;;-136.69;86.27
21879;BME280;27908;42.708;23.278;2023-12-20T09:53:24;49682.63;;;-136.69;84.93
21879;BME280;27908;42.708;23.278;2023-12-20T09:55:57;49706.25;;;-136.69;84.67
21879;BME280;27908;42.708;23.278;2023-12-20T09:58:24;49698.38;;;-136.69;85.50
21879;BME280;27908;42.708;23.278;2023-12-20T10:00:50;49662.94;;;-136.69;84.74
21879;BME280;27908;42.708;23.278;2023-12-20T10:03:17;49723.97;;;-136.69;85.00
21879;BME280;27908;42.708;23.278;2023-12-20T10:05:46;49714.13;;;-136.69;85.27
21879;BME280;27908;42.708;23.278;2023-12-20T10:08:14;49688.53;;;-136.69;84.49
21879;BME280;27908;42.708;23.278;2023-12-20T10:10:39;49706.25;;;-136.69;83.27
21879;BME280;27908;42.708;23.278;2023-12-20T10:13:07;49659.00;;;-136.69;83.81
21879;BME280;27908;42.708;23.278;2023-12-20T10:15:34;49666.88;;;-136.69;82.94
21879;BME280;27908;42.708;23.278;2023-12-20T10:18:01;49700.34;;;-136.69;80.51
21879;BME280;27908;42.708;23.278;2023-12-20T10:20:27;49722.00;;;-136.69;78.77
21879;BME280;27908;42.708;23.278;2023-12-20T10:22:57;49735.78;;;-136.69;73.87
21879;BME280;27908;42.708;23.278;2023-12-20T10:25:23;49727.91;;;-136.69;72.54
21879;BME280;27908;42.708;23.278;2023-12-20T10:27:50;49688.53;;;-136.69;70.44
21879;BME280;27908;42.708;23.278;2023-12-20T10:30:15;49727.91;;;-136.69;70.01
21879;BME280;27908;42.708;23.278;2023-12-20T10:32:41;49702.31;;;-136.69;71.44
21879;BME280;27908;42.708;23.278;2023-12-20T10:35:08;49723.97;;;-136.69;68.35
21879;BME280;27908;42.708;23.278;2023-12-20T10:37:37;49700.34;;;-136.69;70.36
21879;BME280;27908;42.708;23.278;2023-12-20T10:40:04;49725.94;;;-136.69;70.56
21879;BME280;27908;42.708;23.278;2023-12-20T10:42:31;49684.59;;;-136.69;71.89
21879;BME280;27908;42.708;23.278;2023-12-20T10:44:59;49710.19;;;-136.69;72.25
21879;BME280;27908;42.708;23.278;2023-12-20T10:47:25;49698.38;;;-136.69;72.26
21879;BME280;27908;42.708;23.278;2023-12-20T10:49:52;49727.91;;;-136.69;71.60
21879;BME280;27908;42.708;23.278;2023-12-20T10:52:19;49716.09;;;-136.69;75.61
21879;BME280;27908;42.708;23.278;2023-12-20T10:54:47;49714.13;;;-136.69;70.36
21879;BME280;27908;42.708;23.278;2023-12-20T10:57:12;49712.16;;;-136.69;69.39
21879;BME280;27908;42.708;23.278;2023-12-20T10:59:39;49688.53;;;-136.69;69.44
21879;BME280;27908;42.708;23.278;2023-12-20T11:02:05;49706.25;;;-136.69;69.36
21879;BME280;27908;42.708;23.278;2023-12-20T11:05:25;49704.28;;;-136.69;70.66
21879;BME280;27908;42.708;23.278;2023-12-20T11:07:33;49710.19;;;-136.69;73.01
21879;BME280;27908;42.708;23.278;2023-12-20T11:15:21;49684.59;;;-136.69;76.73
21879;BME280;27908;42.708;23.278;2023-12-20T11:17:55;49702.31;;;-136.69;76.95
21879;BME280;27908;42.708;23.278;2023-12-20T11:20:23;49698.38;;;-136.69;77.42
21879;BME280;27908;42.708;23.278;2023-12-20T11:22:55;49708.22;;;-136.69;77.73
21879;BME280;27908;42.708;23.278;2023-12-20T11:25:21;49722.00;;;-136.69;82.79
21879;BME280;27908;42.708;23.278;2023-12-20T11:28:07;49684.59;;;-136.69;81.46
21879;BME280;27908;42.708;23.278;2023-12-20T11:31:02;49712.16;;;-136.69;80.20
21879;BME280;27908;42.708;23.278;2023-12-20T11:33:30;49698.38;;;-136.69;80.58
21879;BME280;27908;42.708;23.278;2023-12-20T11:35:57;49700.34;;;-136.69;80.02
21879;BME280;27908;42.708;23.278;2023-12-20T11:38:25;49694.44;;;-136.69;79.14
21879;BME280;27908;42.708;23.278;2023-12-20T11:40:51;49716.09;;;-136.69;77.88
21879;BME280;27908;42.708;23.278;2023-12-20T11:43:38;49682.63;;;-136.69;77.44
21879;BME280;27908;42.708;23.278;2023-12-20T11:46:08;49704.28;;;-136.69;78.59
21879;BME280;27908;42.708;23.278;2023-12-20T11:48:39;49720.03;;;-136.69;77.29
21879;BME280;27908;42.708;23.278;2023-12-20T11:51:12;49684.59;;;-136.69;76.62
21879;BME280;27908;42.708;23.278;2023-12-20T11:53:39;49725.94;;;-136.69;75.82
21879;BME280;27908;42.708;23.278;2023-12-20T11:56:06;49733.81;;;-136.69;74.93
21879;BME280;27908;42.708;23.278;2023-12-20T11:58:32;49702.31;;;-136.69;74.21
21879;BME280;27908;42.708;23.278;2023-12-20T12:00:58;49698.38;;;-136.69;74.24
21879;BME280;27908;42.708;23.278;2023-12-20T12:03:23;49716.09;;;-136.69;74.83
21879;BME280;27908;42.708;23.278;2023-12-20T12:05:49;49694.44;;;-136.69;74.91
21879;BME280;27908;42.708;23.278;2023-12-20T12:08:16;49718.06;;;-136.69;73.36
21879;BME280;27908;42.708;23.278;2023-12-20T12:10:43;49735.78;;;-136.69;74.40
21879;BME280;27908;42.708;23.278;2023-12-20T12:13:09;49720.03;;;-136.69;73.89
21879;BME280;27908;42.708;23.278;2023-12-20T12:15:35;49692.47;;;-136.69;73.65
21879;BME280;27908;42.708;23.278;2023-12-20T12:18:01;49698.38;;;-136.69;72.78
21879;BME280;27908;42.708;23.278;2023-12-20T12:20:27;49729.88;;;-136.69;71.15
21879;BME280;27908;42.708;23.278;2023-12-20T12:22:59;49722.00;;;-136.69;72.21
21879;BME280;27908;42.708;23.278;2023-12-20T12:25:25;49720.03;;;-136.69;71.89
21879;BME280;27908;42.708;23.278;2023-12-20T12:27:51;49769.25;;;-136.69;70.61
21879;BME280;27908;42.708;23.278;2023-12-20T12:30:16;49722.00;;;-136.69;70.16